createdAt,value
2023-04-06T00:00:50.127Z,5.35
2023-04-06T00:03:17.064Z,5.85
2023-04-06T00:05:44.037Z,8.95
2023-04-06T00:08:10.959Z,3.67
2023-04-06T00:10:37.725Z,3.70
2023-04-06T00:13:04.767Z,5.20
2023-04-06T00:15:31.657Z,4.32
2023-04-06T00:17:58.546Z,5.32
2023-04-06T00:20:25.737Z,3.88
2023-04-06T00:22:52.631Z,6.85
2023-04-06T00:25:19.370Z,4.43
2023-04-06T00:27:46.198Z,6.97
2023-04-06T00:30:14.197Z,4.60
2023-04-06T00:32:41.017Z,7.70
2023-04-06T00:35:07.992Z,3.90
2023-04-06T00:37:34.770Z,8.55
2023-04-06T00:40:01.600Z,3.95
2023-04-06T00:42:28.515Z,3.85
2023-04-06T00:45:00.080Z,5.45
2023-04-06T00:47:27.221Z,3.83
2023-04-06T00:49:54.857Z,5.75
2023-04-06T00:52:21.862Z,4.97
2023-04-06T00:54:50.649Z,6.68
2023-04-06T00:57:19.309Z,22.63
2023-04-06T00:59:48.512Z,8.25
2023-04-06T01:02:15.998Z,7.05
2023-04-06T01:04:48.151Z,4.10
2023-04-06T01:07:26.210Z,6.35
2023-04-06T01:10:07.459Z,5.20
2023-04-06T01:12:37.159Z,7.90
2023-04-06T01:15:08.412Z,4.63
2023-04-06T01:17:37.193Z,5.10
2023-04-06T01:20:10.850Z,3.40
2023-04-06T01:22:38.653Z,5.30
2023-04-06T01:25:06.504Z,6.18
2023-04-06T01:27:41.202Z,7.85
2023-04-06T01:30:21.951Z,6.40
2023-04-06T01:32:59.354Z,5.38
2023-04-06T01:35:38.847Z,4.32
2023-04-06T01:38:15.740Z,5.30
2023-04-06T01:40:42.581Z,6.30
2023-04-06T01:43:10.273Z,3.72
2023-04-06T01:45:48.721Z,4.88
2023-04-06T01:48:20.071Z,6.30
2023-04-06T01:50:47.030Z,4.95
2023-04-06T01:53:19.514Z,6.25
2023-04-06T01:55:47.123Z,6.13
2023-04-06T01:58:36.342Z,6.60
2023-04-06T02:01:04.225Z,6.72
2023-04-06T02:03:41.569Z,5.90
2023-04-06T02:06:11.083Z,13.40
2023-04-06T02:08:40.894Z,5.55
2023-04-06T02:11:07.674Z,3.58
2023-04-06T02:13:40.762Z,5.75
2023-04-06T02:16:08.923Z,9.00
2023-04-06T02:18:35.987Z,3.42
2023-04-06T02:21:03.223Z,4.30
2023-04-06T02:23:30.051Z,4.32
2023-04-06T02:25:57.739Z,7.30
2023-04-06T02:28:24.583Z,3.92
2023-04-06T02:30:51.428Z,6.38
2023-04-06T02:33:19.338Z,6.82
2023-04-06T02:35:48.024Z,5.47
2023-04-06T02:38:14.904Z,5.35
2023-04-06T02:40:41.757Z,4.68
2023-04-06T02:43:20.342Z,3.97
2023-04-06T02:45:47.978Z,8.15
2023-04-06T02:48:15.094Z,4.57
2023-04-06T02:50:41.880Z,4.90
2023-04-06T02:53:09.166Z,5.65
2023-04-06T02:55:38.542Z,4.30
2023-04-06T02:58:05.501Z,5.15
2023-04-06T03:00:41.510Z,5.93
2023-04-06T03:03:08.723Z,5.22
2023-04-06T03:05:35.961Z,8.27
2023-04-06T03:08:02.900Z,5.70
2023-04-06T03:10:49.951Z,8.80
2023-04-06T03:13:19.472Z,7.38
2023-04-06T03:15:49.830Z,3.97
2023-04-06T03:18:22.958Z,7.57
2023-04-06T03:20:50.641Z,4.25
2023-04-06T03:23:21.728Z,5.57
2023-04-06T03:25:52.691Z,9.38
2023-04-06T03:28:21.052Z,6.93
2023-04-06T03:30:54.731Z,11.43
2023-04-06T03:33:37.441Z,5.25
2023-04-06T03:36:05.019Z,9.25
2023-04-06T03:38:35.500Z,5.25
2023-04-06T03:41:08.601Z,4.32
2023-04-06T03:43:35.671Z,5.10
2023-04-06T03:46:02.618Z,5.20
2023-04-06T03:48:29.448Z,4.10
2023-04-06T03:50:56.221Z,5.90
2023-04-06T03:53:23.018Z,4.53
2023-04-06T03:55:51.657Z,7.85
2023-04-06T03:58:18.710Z,11.18
2023-04-06T04:00:46.378Z,7.65
2023-04-06T04:03:13.338Z,6.65
2023-04-06T04:05:40.389Z,9.55
2023-04-06T04:08:07.463Z,5.60
2023-04-06T04:10:34.268Z,6.85
2023-04-06T04:13:01.119Z,7.05
2023-04-06T04:15:27.905Z,5.75
2023-04-06T04:17:54.846Z,4.30
2023-04-06T04:20:23.888Z,6.50
2023-04-06T04:22:51.416Z,5.03
2023-04-06T04:25:18.205Z,6.35
2023-04-06T04:27:48.795Z,7.35
2023-04-06T04:30:16.375Z,8.30
2023-04-06T04:32:43.356Z,6.53
2023-04-06T04:35:11.152Z,5.43
2023-04-06T04:37:42.109Z,4.45
2023-04-06T04:40:10.890Z,4.70
2023-04-06T04:42:52.216Z,5.90
2023-04-06T04:45:25.919Z,9.70
2023-04-06T04:47:53.808Z,7.47
2023-04-06T04:50:23.612Z,8.48
2023-04-06T04:52:54.966Z,4.30
2023-04-06T04:55:24.638Z,8.95
2023-04-06T04:57:55.323Z,6.20
2023-04-06T05:00:29.213Z,4.75
2023-04-06T05:02:58.442Z,12.45
2023-04-06T05:05:31.126Z,8.40
2023-04-06T05:07:58.013Z,5.80
2023-04-06T05:10:38.751Z,7.22
2023-04-06T05:13:06.098Z,6.25
2023-04-06T05:15:35.706Z,6.07
2023-04-06T05:18:12.254Z,7.13
2023-04-06T05:20:39.787Z,6.47
2023-04-06T05:23:06.702Z,6.97
2023-04-06T05:25:34.740Z,6.95
2023-04-06T05:28:11.969Z,7.32
2023-04-06T05:30:40.178Z,6.18
2023-04-06T05:33:14.456Z,7.85
2023-04-06T05:35:56.925Z,5.82
2023-04-06T05:38:24.310Z,6.07
2023-04-06T05:40:53.486Z,6.35
2023-04-06T05:43:23.994Z,5.78
2023-04-06T05:45:54.880Z,9.30
2023-04-06T05:48:22.093Z,13.13
2023-04-06T05:50:51.999Z,7.72
2023-04-06T05:53:23.035Z,10.43
2023-04-06T05:55:55.544Z,12.45
2023-04-06T05:58:22.413Z,22.75
2023-04-06T06:00:57.080Z,7.55
2023-04-06T06:03:24.580Z,6.97
2023-04-06T06:05:54.723Z,10.63
2023-04-06T06:08:30.696Z,9.80
2023-04-06T06:11:00.086Z,9.52
2023-04-06T06:13:27.114Z,5.18
2023-04-06T06:15:55.135Z,7.53
2023-04-06T06:18:23.237Z,6.70
2023-04-06T06:20:53.267Z,8.38
2023-04-06T06:23:20.358Z,8.65
2023-04-06T06:25:47.906Z,11.52
2023-04-06T06:28:15.096Z,7.93
2023-04-06T06:30:42.011Z,9.45
2023-04-06T06:33:09.027Z,7.57
2023-04-06T06:35:36.225Z,6.22
2023-04-06T06:38:05.085Z,7.18
2023-04-06T06:40:33.690Z,7.45
2023-04-06T06:43:00.853Z,7.50
2023-04-06T06:45:33.476Z,7.88
2023-04-06T06:48:00.557Z,6.72
2023-04-06T06:50:28.427Z,4.68
2023-04-06T06:52:55.694Z,9.23
2023-04-06T06:55:22.564Z,16.20
2023-04-06T06:57:49.737Z,14.35
2023-04-06T07:00:18.017Z,4.88
2023-04-06T07:02:46.982Z,8.45
2023-04-06T07:05:26.738Z,9.88
2023-04-06T07:07:55.075Z,9.43
2023-04-06T07:10:22.112Z,5.47
2023-04-06T07:12:49.047Z,5.65
2023-04-06T07:15:16.999Z,9.00
2023-04-06T07:17:46.356Z,8.13
2023-04-06T07:20:13.935Z,6.70
2023-04-06T07:22:42.961Z,6.20
2023-04-06T07:25:10.082Z,5.45
2023-04-06T07:27:37.090Z,12.25
2023-04-06T07:30:04.236Z,6.32
2023-04-06T07:32:31.780Z,6.97
2023-04-06T07:34:59.447Z,7.45
2023-04-06T07:37:26.510Z,8.63
2023-04-06T07:39:53.483Z,6.53
2023-04-06T07:42:20.494Z,7.35
2023-04-06T07:44:47.536Z,9.88
2023-04-06T07:47:14.487Z,5.07
2023-04-06T07:49:41.446Z,11.30
2023-04-06T07:52:08.478Z,6.10
2023-04-06T07:54:35.483Z,8.68
2023-04-06T07:57:02.380Z,7.05
2023-04-06T07:59:29.392Z,9.35
2023-04-06T08:01:56.382Z,7.07
2023-04-06T08:04:23.229Z,9.75
2023-04-06T08:06:50.045Z,11.18
2023-04-06T08:09:17.543Z,6.60
2023-04-06T08:11:49.665Z,9.02
2023-04-06T08:14:17.153Z,8.40
2023-04-06T08:16:51.146Z,8.38
2023-04-06T08:19:19.832Z,12.23
2023-04-06T08:21:49.964Z,10.75
2023-04-06T08:24:16.865Z,7.45
2023-04-06T08:26:43.932Z,5.03
2023-04-06T08:29:11.138Z,13.07
2023-04-06T08:31:38.078Z,4.75
2023-04-06T08:34:05.494Z,8.35
2023-04-06T08:36:32.972Z,8.60
2023-04-06T08:39:00.901Z,7.90
2023-04-06T08:41:28.726Z,7.32
2023-04-06T08:44:02.440Z,7.97
2023-04-06T08:46:32.238Z,7.47
2023-04-06T08:49:00.278Z,11.93
2023-04-06T08:51:27.543Z,11.13
2023-04-06T08:53:59.557Z,8.50
2023-04-06T08:56:27.756Z,9.45
2023-04-06T08:58:56.014Z,12.10
2023-04-06T09:01:25.226Z,9.38
2023-04-06T09:03:52.297Z,10.38
2023-04-06T09:06:21.425Z,7.18
2023-04-06T09:08:48.274Z,14.23
2023-04-06T09:11:16.197Z,8.50
2023-04-06T09:13:53.836Z,12.48
2023-04-06T09:16:26.663Z,11.93
2023-04-06T09:18:55.960Z,13.68
2023-04-06T09:21:24.607Z,11.63
2023-04-06T09:24:03.081Z,11.27
2023-04-06T09:26:30.157Z,12.43
2023-04-06T09:29:02.244Z,11.13
2023-04-06T09:31:31.155Z,13.07
2023-04-06T09:33:58.377Z,12.80
2023-04-06T09:36:36.111Z,12.23
2023-04-06T09:39:04.895Z,12.65
2023-04-06T09:41:32.999Z,11.15
2023-04-06T09:44:07.980Z,10.95
2023-04-06T09:46:55.089Z,9.98
2023-04-06T09:49:28.758Z,11.27
2023-04-06T09:51:58.238Z,11.20
2023-04-06T09:54:25.082Z,11.10
2023-04-06T09:56:59.750Z,12.63
2023-04-06T09:59:36.868Z,10.40
2023-04-06T10:02:03.804Z,10.32
2023-04-06T10:04:44.570Z,11.75
2023-04-06T10:07:12.878Z,10.80
2023-04-06T10:09:39.792Z,10.43
2023-04-06T10:12:06.990Z,14.50
2023-04-06T10:14:36.149Z,22.63
2023-04-06T10:17:03.616Z,10.55
2023-04-06T10:19:34.845Z,9.85
2023-04-06T10:22:01.695Z,14.05
2023-04-06T10:24:28.541Z,12.93
2023-04-06T10:27:13.578Z,11.55
2023-04-06T10:29:48.624Z,14.13
2023-04-06T10:32:15.664Z,10.27
2023-04-06T10:34:42.536Z,11.23
2023-04-06T10:37:15.763Z,10.88
2023-04-06T10:39:59.405Z,13.27
2023-04-06T10:44:53.888Z,10.77
2023-04-06T10:47:20.926Z,7.82
2023-04-06T10:49:47.966Z,13.07
2023-04-06T10:52:14.973Z,10.95
2023-04-06T10:54:44.903Z,15.35
2023-04-06T10:57:11.794Z,10.90
2023-04-06T10:59:43.302Z,10.60
2023-04-06T11:02:10.164Z,11.52
2023-04-06T11:04:40.251Z,9.48
2023-04-06T11:07:07.190Z,10.73
2023-04-06T11:09:34.535Z,13.15
2023-04-06T11:12:01.819Z,10.43
2023-04-06T11:14:28.725Z,10.32
2023-04-06T11:16:56.133Z,13.05
2023-04-06T11:19:23.018Z,12.48
2023-04-06T11:21:50.270Z,13.93
2023-04-06T11:24:21.074Z,12.60
2023-04-06T11:27:02.095Z,11.98
2023-04-06T11:29:30.165Z,13.70
2023-04-06T11:32:03.936Z,15.23
2023-04-06T11:34:31.793Z,9.50
2023-04-06T11:36:59.982Z,8.32
2023-04-06T11:39:28.035Z,10.73
2023-04-06T11:41:56.704Z,10.10
2023-04-06T11:44:40.175Z,11.80
2023-04-06T11:47:07.880Z,7.57
2023-04-06T11:49:37.475Z,9.18
2023-04-06T11:52:04.381Z,9.32
2023-04-06T11:54:32.221Z,9.30
2023-04-06T11:56:59.082Z,7.50
2023-04-06T11:59:25.944Z,10.63
2023-04-06T12:01:54.198Z,10.00
2023-04-06T12:04:21.755Z,7.25
2023-04-06T12:06:50.640Z,6.40
2023-04-06T12:09:19.355Z,8.30
2023-04-06T12:11:46.235Z,8.27
2023-04-06T12:14:13.541Z,8.70
2023-04-06T12:16:40.734Z,10.80
2023-04-06T12:19:07.762Z,16.17
2023-04-06T12:21:36.199Z,10.45
2023-04-06T12:24:03.058Z,6.93
2023-04-06T12:26:31.360Z,8.70
2023-04-06T12:29:00.336Z,9.40
2023-04-06T12:31:27.273Z,7.80
2023-04-06T12:33:54.171Z,11.63
2023-04-06T12:36:22.087Z,9.80
2023-04-06T12:38:49.218Z,5.78
2023-04-06T12:41:16.402Z,9.82
2023-04-06T12:43:43.511Z,8.10
2023-04-06T12:46:11.074Z,8.40
2023-04-06T12:48:38.111Z,7.95
2023-04-06T12:51:07.873Z,9.32
2023-04-06T12:53:35.794Z,7.50
2023-04-06T12:56:03.061Z,7.82
2023-04-06T12:58:30.770Z,7.90
2023-04-06T13:00:59.090Z,8.13
2023-04-06T13:03:26.291Z,7.32
2023-04-06T13:05:53.204Z,8.45
2023-04-06T13:08:20.366Z,10.68
2023-04-06T13:10:51.726Z,8.43
2023-04-06T13:13:19.079Z,10.23
2023-04-06T13:15:46.143Z,9.63
2023-04-06T13:18:12.961Z,9.85
2023-04-06T13:20:39.994Z,13.57
2023-04-06T13:23:06.783Z,11.02
2023-04-06T13:25:33.814Z,11.77
2023-04-06T13:28:00.870Z,15.60
2023-04-06T13:30:27.810Z,12.52
2023-04-06T13:32:54.728Z,11.77
2023-04-06T13:35:21.577Z,19.80
2023-04-06T13:37:49.242Z,7.70
2023-04-06T13:40:16.140Z,9.85
2023-04-06T13:42:45.079Z,13.63
2023-04-06T13:45:12.121Z,9.85
2023-04-06T13:47:38.920Z,15.65
2023-04-06T13:50:06.435Z,11.43
2023-04-06T13:52:33.228Z,6.45
2023-04-06T13:55:00.016Z,10.50
2023-04-06T13:57:26.803Z,7.57
2023-04-06T13:59:53.708Z,8.50
2023-04-06T14:02:21.348Z,14.38
2023-04-06T14:04:48.253Z,9.10
2023-04-06T14:07:15.317Z,8.30
2023-04-06T14:09:42.136Z,9.50
2023-04-06T14:12:08.934Z,9.43
2023-04-06T14:14:36.001Z,12.32
2023-04-06T14:17:03.045Z,11.95
2023-04-06T14:19:30.250Z,11.40
2023-04-06T14:21:57.464Z,10.13
2023-04-06T14:24:24.346Z,9.60
2023-04-06T14:26:51.153Z,11.02
2023-04-06T14:29:18.615Z,15.00
2023-04-06T14:31:48.089Z,17.48
2023-04-06T14:38:34.337Z,14.48
2023-04-06T14:41:01.671Z,11.77
2023-04-06T14:43:28.689Z,10.80
2023-04-06T14:45:55.808Z,13.07
2023-04-06T14:48:22.720Z,12.52
2023-04-06T14:50:56.667Z,13.20
2023-04-06T14:53:24.765Z,13.40
2023-04-06T14:55:52.517Z,13.38
2023-04-06T14:58:20.436Z,12.30
2023-04-06T15:00:47.373Z,13.82
2023-04-06T15:03:14.421Z,12.85
2023-04-06T15:05:41.392Z,12.80
2023-04-06T15:08:10.304Z,13.02
2023-04-06T15:10:37.471Z,10.52
2023-04-06T15:13:04.389Z,13.30
2023-04-06T15:15:31.252Z,9.82
2023-04-06T15:17:58.221Z,13.82
2023-04-06T15:20:25.862Z,12.02
2023-04-06T15:22:52.820Z,12.38
2023-04-06T15:25:19.780Z,11.15
2023-04-06T15:27:46.656Z,12.38
2023-04-06T15:30:13.911Z,12.05
2023-04-06T15:32:40.970Z,8.63
2023-04-06T15:35:11.744Z,15.90
2023-04-06T15:37:39.290Z,10.00
2023-04-06T15:40:06.996Z,8.02
2023-04-06T15:42:33.826Z,10.52
2023-04-06T15:45:00.683Z,7.45
2023-04-06T15:47:27.523Z,11.65
2023-04-06T15:49:54.441Z,10.90
2023-04-06T15:52:22.836Z,8.35
2023-04-06T15:54:49.932Z,6.85
2023-04-06T15:57:16.783Z,9.13
2023-04-06T15:59:43.705Z,8.27
2023-04-06T16:02:10.996Z,8.70
2023-04-06T16:04:38.307Z,9.35
2023-04-06T16:07:05.519Z,9.02
2023-04-06T16:09:32.510Z,8.10
2023-04-06T16:11:59.379Z,6.70
2023-04-06T16:14:26.234Z,9.02
2023-04-06T16:16:53.220Z,9.35
2023-04-06T16:19:20.081Z,9.27
2023-04-06T16:21:48.234Z,9.52
2023-04-06T16:24:15.129Z,8.80
2023-04-06T16:26:42.633Z,9.07
2023-04-06T16:29:10.455Z,10.65
2023-04-06T16:31:37.444Z,11.88
2023-04-06T16:34:04.398Z,7.10
2023-04-06T16:36:32.067Z,7.30
2023-04-06T16:38:59.339Z,11.70
2023-04-06T16:41:27.588Z,13.10
2023-04-06T16:43:57.331Z,9.32
2023-04-06T16:46:35.089Z,10.48
2023-04-06T16:49:03.217Z,6.13
2023-04-06T16:51:32.003Z,9.20
2023-04-06T16:53:59.066Z,8.30
2023-04-06T16:56:26.154Z,9.32
2023-04-06T16:58:53.069Z,8.70
2023-04-06T17:01:27.996Z,8.27
2023-04-06T17:03:55.457Z,8.80
2023-04-06T17:06:22.678Z,11.57
2023-04-06T17:08:49.669Z,9.18
2023-04-06T17:11:20.258Z,8.18
2023-04-06T17:13:50.858Z,6.95
2023-04-06T17:16:18.268Z,6.80
2023-04-06T17:18:45.314Z,4.63
2023-04-06T17:21:14.617Z,9.65
2023-04-06T17:23:41.718Z,7.72
2023-04-06T17:26:08.651Z,4.90
2023-04-06T17:28:35.747Z,3.47
2023-04-06T17:31:02.707Z,5.18
2023-04-06T17:33:32.499Z,3.53
2023-04-06T17:35:59.330Z,4.35
2023-04-06T17:38:26.267Z,6.65
2023-04-06T17:40:53.144Z,8.23
2023-04-06T17:43:20.109Z,5.32
2023-04-06T17:45:50.327Z,6.10
2023-04-06T17:48:17.183Z,3.65
2023-04-06T17:50:44.307Z,5.03
2023-04-06T17:53:11.504Z,4.55
2023-04-06T17:55:38.414Z,3.00
2023-04-06T17:58:05.485Z,3.65
2023-04-06T18:00:32.302Z,2.80
2023-04-06T18:02:59.244Z,5.68
2023-04-06T18:05:28.855Z,4.40
2023-04-06T18:07:55.814Z,2.72
2023-04-06T18:10:22.865Z,3.72
2023-04-06T18:12:49.962Z,4.90
2023-04-06T18:15:17.092Z,2.55
2023-04-06T18:17:45.282Z,3.70
2023-04-06T18:20:14.155Z,3.80
2023-04-06T18:22:42.550Z,10.80
2023-04-06T18:25:09.598Z,7.20
2023-04-06T18:27:36.465Z,5.63
2023-04-06T18:30:04.262Z,3.65
2023-04-06T18:32:31.673Z,7.15
2023-04-06T18:34:58.728Z,5.50
2023-04-06T18:37:26.105Z,5.97
2023-04-06T18:39:54.452Z,4.85
2023-04-06T18:42:21.356Z,3.38
2023-04-06T18:44:48.323Z,7.05
2023-04-06T18:47:15.612Z,5.45
2023-04-06T18:49:42.566Z,5.28
2023-04-06T18:52:09.440Z,6.70
2023-04-06T18:54:36.313Z,4.82
2023-04-06T18:57:04.216Z,12.27
2023-04-06T18:59:31.725Z,12.20
2023-04-06T19:01:59.398Z,13.88
2023-04-06T19:04:27.040Z,10.10
2023-04-06T19:06:55.336Z,10.63
2023-04-06T19:09:22.288Z,9.98
2023-04-06T19:11:49.229Z,7.25
2023-04-06T19:14:16.086Z,5.82
2023-04-06T19:16:48.008Z,8.45
2023-04-06T19:19:14.877Z,10.27
2023-04-06T19:21:41.708Z,5.30
2023-04-06T19:24:21.451Z,4.97
2023-04-06T19:26:48.393Z,4.38
2023-04-06T19:29:15.685Z,3.92
2023-04-06T19:31:42.610Z,3.95
2023-04-06T19:34:09.546Z,5.78
2023-04-06T19:36:36.459Z,4.28
2023-04-06T19:39:03.443Z,3.00
2023-04-06T19:41:30.272Z,3.53
2023-04-06T19:43:57.558Z,3.35
2023-04-06T19:46:24.787Z,2.67
2023-04-06T19:48:51.821Z,2.00
2023-04-06T19:51:18.928Z,3.42
2023-04-06T19:53:45.852Z,2.45
2023-04-06T19:56:12.753Z,3.28
2023-04-06T19:58:40.069Z,3.15
2023-04-06T20:01:08.190Z,3.85
2023-04-06T20:03:36.963Z,1.52
2023-04-06T20:06:05.215Z,2.15
2023-04-06T20:08:32.182Z,9.02
2023-04-06T20:11:03.458Z,2.55
2023-04-06T20:13:30.461Z,1.48
2023-04-06T20:15:59.020Z,5.10
2023-04-06T20:18:26.438Z,5.85
2023-04-06T20:20:54.548Z,2.97
2023-04-06T20:23:21.486Z,2.72
2023-04-06T20:25:58.562Z,3.22
2023-04-06T20:28:39.797Z,2.30
2023-04-06T20:31:09.743Z,4.18
2023-04-06T20:33:37.077Z,2.67
2023-04-06T20:36:04.052Z,4.80
2023-04-06T20:38:33.955Z,2.60
2023-04-06T20:41:01.910Z,1.85
2023-04-06T20:43:29.569Z,2.45
2023-04-06T20:45:57.680Z,6.05
2023-04-06T20:48:25.591Z,1.98
2023-04-06T20:50:52.891Z,1.80
2023-04-06T20:53:20.952Z,13.82
2023-04-06T20:55:47.987Z,3.90
2023-04-06T20:58:21.021Z,2.22
2023-04-06T21:00:49.640Z,2.55
2023-04-06T21:03:17.664Z,1.58
2023-04-06T21:05:55.569Z,2.33
2023-04-06T21:08:22.622Z,1.88
2023-04-06T21:10:49.516Z,1.65
2023-04-06T21:13:16.791Z,2.15
2023-04-06T21:15:44.237Z,3.25
2023-04-06T21:18:11.672Z,1.67
2023-04-06T21:20:39.894Z,1.45
2023-04-06T21:23:06.825Z,2.90
2023-04-06T21:25:37.944Z,3.28
2023-04-06T21:28:06.660Z,2.33
2023-04-06T21:30:37.289Z,4.22
2023-04-06T21:33:07.598Z,4.18
2023-04-06T21:35:37.764Z,1.98
2023-04-06T21:38:04.651Z,2.25
2023-04-06T21:40:31.505Z,4.80
2023-04-06T21:42:58.334Z,3.95
2023-04-06T21:45:25.397Z,4.00
2023-04-06T21:47:59.115Z,8.02
2023-04-06T21:50:30.793Z,2.63
2023-04-06T21:52:59.350Z,1.88
2023-04-06T21:55:28.000Z,2.05
2023-04-06T21:57:55.145Z,2.33
2023-04-06T22:00:22.216Z,1.38
2023-04-06T22:02:49.310Z,2.00
2023-04-06T22:05:16.554Z,5.90
2023-04-06T22:07:46.249Z,8.45
2023-04-06T22:10:13.187Z,4.35
2023-04-06T22:12:40.067Z,1.63
2023-04-06T22:15:07.566Z,2.53
2023-04-06T22:17:34.494Z,5.90
2023-04-06T22:20:01.347Z,2.85
2023-04-06T22:22:28.249Z,5.60
2023-04-06T22:24:55.183Z,2.15
2023-04-06T22:27:22.027Z,2.35
2023-04-06T22:29:48.843Z,1.80
2023-04-06T22:32:15.837Z,3.35
2023-04-06T22:34:42.673Z,3.38
2023-04-06T22:37:09.608Z,2.88
2023-04-06T22:39:36.503Z,1.63
2023-04-06T22:42:03.957Z,4.85
2023-04-06T22:44:30.921Z,2.75
2023-04-06T22:46:57.753Z,4.00
2023-04-06T22:49:24.623Z,3.75
2023-04-06T22:51:51.462Z,4.22
2023-04-06T22:54:18.572Z,2.78
2023-04-06T22:56:45.692Z,1.65
2023-04-06T22:59:12.667Z,2.80
2023-04-06T23:01:39.639Z,3.65
2023-04-06T23:04:06.699Z,2.53
2023-04-06T23:06:33.817Z,4.15
2023-04-06T23:09:00.690Z,3.20
2023-04-06T23:11:27.541Z,8.07
2023-04-06T23:13:54.394Z,3.05
2023-04-06T23:16:21.427Z,5.15
2023-04-06T23:18:48.304Z,2.28
2023-04-06T23:21:15.666Z,2.75
2023-04-06T23:23:42.565Z,2.22
2023-04-06T23:26:09.386Z,3.50
2023-04-06T23:28:36.344Z,3.45
2023-04-06T23:31:03.223Z,1.50
2023-04-06T23:33:30.108Z,4.15
2023-04-06T23:35:57.046Z,6.05
2023-04-06T23:38:23.969Z,2.28
2023-04-06T23:40:51.012Z,4.97
2023-04-06T23:43:17.842Z,4.50
2023-04-06T23:45:44.747Z,3.03
2023-04-06T23:48:11.809Z,4.60
2023-04-06T23:50:38.688Z,2.97
2023-04-06T23:53:05.689Z,4.80
2023-04-06T23:55:32.528Z,6.65
2023-04-06T23:57:59.377Z,4.70
